Time;durP1;ratioP1;P1;durP2;ratioP2;P2;SDS_P1;SDS_P2;PMS_P1;PMS_P2;Temp;Humidity;BMP_temperature;BMP_pressure;BME280_temperature;BME280_humidity;BME280_pressure;Samples;Min_cycle;Max_cycle;Signal;HPM_P1;HPM_P2
2023/07/13 00:02:10;;;;;;;;;1.33;1.33;;;;;22.24;43.16;101227.31;5075890;27;45509;-66
2023/07/13 00:04:36;;;;;;;;;1.00;1.00;;;;;22.40;43.58;101253.13;5076293;27;47440;-65
2023/07/13 00:07:01;;;;;;;;;3.00;3.00;;;;;22.37;43.49;101250.84;5076587;28;45720;-65
2023/07/13 00:09:27;;;;;;;;;4.33;3.33;;;;;22.29;43.36;101245.66;5089885;27;45274;-68
2023/07/13 00:11:56;;;;;;;;;1.75;1.75;;;;;22.32;42.98;101261.47;5098957;27;45548;-66
2023/07/13 00:14:23;;;;;;;;;2.67;2.00;;;;;21.63;43.12;101148.13;5087997;27;45502;-66
2023/07/13 00:16:48;;;;;;;;;1.00;1.00;;;;;22.27;43.34;101256.69;5078296;28;45402;-66
2023/07/13 00:19:14;;;;;;;;;3.33;2.00;;;;;22.25;43.58;101249.81;5060297;28;45395;-66
2023/07/13 00:21:40;;;;;;;;;3.00;2.00;;;;;22.19;43.43;101239.78;5078699;28;45576;-66
2023/07/13 00:24:07;;;;;;;;;0.33;0.33;;;;;22.29;43.22;101256.47;5077565;27;46207;-66
2023/07/13 00:26:32;;;;;;;;;1.67;1.67;;;;;22.30;42.98;101260.84;5077001;28;45575;-65
2023/07/13 00:28:58;;;;;;;;;5.00;1.00;;;;;21.95;43.69;101209.56;5077032;27;45281;-65
2023/07/13 00:31:24;;;;;;;;;1.00;1.00;;;;;22.30;42.96;101263.56;5078343;28;45297;-65
2023/07/13 00:33:49;;;;;;;;;3.67;1.00;;;;;22.29;43.25;101264.59;5077840;27;46387;-66
2023/07/13 00:36:15;;;;;;;;;1.00;1.00;;;;;22.27;43.23;101261.28;5076177;28;56773;-66
2023/07/13 00:38:40;;;;;;;;;2.67;1.00;;;;;22.28;43.47;101268.34;5077821;27;45403;-66
2023/07/13 00:41:06;;;;;;;;;2.00;1.00;;;;;22.27;43.65;101270.22;5078055;28;45339;-66
2023/07/13 00:43:31;;;;;;;;;1.00;1.00;;;;;22.26;44.38;101260.44;5077438;27;46423;-66
2023/07/13 00:46:22;;;;;;;;;1.00;1.00;;;;;22.29;43.64;101267.31;5059684;28;45569;-67
2023/07/13 00:48:49;;;;;;;;;3.33;1.00;;;;;22.26;44.38;101270.44;5076260;27;45336;-67
2023/07/13 00:51:20;;;;;;;;;1.00;1.00;;;;;21.92;44.33;101217.28;5077898;28;45348;-66
2023/07/13 00:53:46;;;;;;;;;2.00;2.00;;;;;22.19;44.81;101275.00;5059175;27;47697;-66
2023/07/13 00:56:12;;;;;;;;;1.33;1.00;;;;;22.10;44.23;101271.69;5077257;28;45959;-66
2023/07/13 00:58:38;;;;;;;;;1.67;1.33;;;;;22.13;44.81;101280.22;5077611;27;45435;-65
2023/07/13 01:01:03;;;;;;;;;1.33;0.67;;;;;22.11;44.21;101274.19;5077946;28;45249;-66
2023/07/13 01:03:29;;;;;;;;;2.00;1.00;;;;;22.06;45.00;101268.56;5077580;27;45533;-71
2023/07/13 01:05:55;;;;;;;;;1.00;1.00;;;;;22.07;44.83;101281.06;5077705;28;45311;-67
2023/07/13 01:08:21;;;;;;;;;2.00;2.00;;;;;22.07;44.88;101272.94;5077407;28;45399;-66
2023/07/13 01:10:57;;;;;;;;;0.67;0.00;;;;;22.06;45.25;101281.25;5075973;28;45321;-67
2023/07/13 01:13:24;;;;;;;;;1.00;1.00;;;;;22.00;45.17;101277.44;5074700;28;46571;-66
2023/07/13 01:15:51;;;;;;;;;1.67;1.67;;;;;22.12;45.27;101291.25;5075236;28;45431;-66
2023/07/13 01:18:21;;;;;;;;;1.00;1.00;;;;;22.11;44.91;101290.44;5076921;28;45463;-67
2023/07/13 01:20:53;;;;;;;;;2.67;1.00;;;;;22.15;45.25;101291.69;5076826;28;45411;-66
2023/07/13 01:23:19;;;;;;;;;3.33;3.00;;;;;21.79;45.00;101237.03;5076577;28;46518;-66
2023/07/13 01:25:44;;;;;;;;;1.00;1.00;;;;;22.09;45.36;101292.50;5076143;28;45753;-66
2023/07/13 01:28:10;;;;;;;;;2.00;2.00;;;;;22.07;45.37;101293.75;5077534;28;45632;-66
2023/07/13 01:30:38;;;;;;;;;3.67;1.33;;;;;22.07;45.63;101282.94;5077370;28;45422;-66
2023/07/13 01:33:03;;;;;;;;;1.00;1.00;;;;;22.07;45.16;101280.22;5077121;28;45676;-68
2023/07/13 01:35:29;;;;;;;;;3.00;2.00;;;;;22.05;45.37;101291.25;5077175;28;45546;-66
2023/07/13 01:37:56;;;;;;;;;1.33;1.33;;;;;22.06;45.05;101287.50;5077283;28;45323;-67
2023/07/13 01:40:22;;;;;;;;;0.67;0.33;;;;;22.01;44.31;101310.78;5075285;28;45325;-66
2023/07/13 01:42:47;;;;;;;;;1.67;1.00;;;;;21.95;43.84;101295.34;5056699;28;46542;-67
2023/07/13 01:45:12;;;;;;;;;2.00;2.00;;;;;21.73;44.03;101260.34;5076060;28;45528;-66
2023/07/13 01:47:37;;;;;;;;;1.00;1.00;;;;;22.04;44.09;101300.44;5075102;28;56037;-66
2023/07/13 01:50:03;;;;;;;;;5.00;4.00;;;;;21.99;44.34;101297.44;5077277;28;45340;-66
2023/07/13 01:52:29;;;;;;;;;1.33;0.00;;;;;21.98;44.15;101298.50;5076736;28;46820;-66
2023/07/13 01:54:54;;;;;;;;;1.00;0.00;;;;;21.96;43.76;101303.28;5076670;28;45394;-67
2023/07/13 01:57:19;;;;;;;;;0.00;0.00;;;;;21.97;44.48;101310.34;5076494;28;45229;-66
2023/07/13 01:59:45;;;;;;;;;2.00;2.00;;;;;21.91;43.69;101304.94;5076338;28;45475;-67
2023/07/13 02:02:10;;;;;;;;;2.00;2.00;;;;;21.83;44.31;101305.97;5076802;28;46849;-66
2023/07/13 02:04:36;;;;;;;;;1.33;1.33;;;;;21.80;44.25;101300.94;5076414;28;59177;-65
2023/07/13 02:07:01;;;;;;;;;0.00;0.00;;;;;21.72;44.13;101296.56;5076938;28;45485;-66
2023/07/13 02:09:27;;;;;;;;;2.00;2.00;;;;;21.71;44.29;101297.59;5077155;28;45360;-65
2023/07/13 02:11:52;;;;;;;;;3.33;2.33;;;;;21.38;43.98;101232.53;5076546;28;46966;-66
2023/07/13 02:14:17;;;;;;;;;3.00;1.00;;;;;21.84;44.70;101304.94;5076585;28;45464;-66
2023/07/13 02:16:43;;;;;;;;;3.00;1.00;;;;;21.88;44.21;101305.34;5058494;28;45336;-66
2023/07/13 02:19:08;;;;;;;;;2.33;1.33;;;;;21.87;43.56;101307.22;5077149;28;45595;-66
2023/07/13 02:21:34;;;;;;;;;1.00;1.00;;;;;21.54;43.95;101256.53;5076454;28;46794;-67
2023/07/13 02:24:00;;;;;;;;;2.67;2.00;;;;;21.80;43.47;101298.22;5076713;28;45440;-66
2023/07/13 02:26:26;;;;;;;;;2.00;2.00;;;;;21.83;43.58;101306.81;5076611;28;45464;-67
2023/07/13 02:28:52;;;;;;;;;0.67;0.67;;;;;21.82;43.64;101302.44;5077257;28;45304;-67
2023/07/13 02:31:18;;;;;;;;;1.00;1.00;;;;;21.85;43.41;101306.59;5058221;28;46472;-66
2023/07/13 02:33:43;;;;;;;;;2.33;1.67;;;;;21.69;43.14;101277.19;5076561;28;45318;-67
2023/07/13 02:36:08;;;;;;;;;3.00;1.00;;;;;21.84;42.88;101304.94;5076632;28;45436;-66
2023/07/13 02:38:36;;;;;;;;;0.67;0.00;;;;;21.78;43.63;101284.06;5079883;28;45297;-65
2023/07/13 02:41:05;;;;;;;;;3.00;2.00;;;;;21.74;44.05;101278.25;5079687;28;46526;-66
2023/07/13 02:43:30;;;;;;;;;2.00;1.00;;;;;21.73;43.52;101276.56;5079886;28;45478;-66
2023/07/13 02:45:56;;;;;;;;;2.00;2.00;;;;;21.84;43.68;101299.53;5080049;28;45320;-67
2023/07/13 02:48:21;;;;;;;;;2.00;1.00;;;;;21.58;43.20;101256.13;5080047;28;45530;-65
2023/07/13 02:50:46;;;;;;;;;1.00;1.00;;;;;21.40;43.52;101238.59;5079728;28;46429;-66
2023/07/13 02:53:12;;;;;;;;;1.00;1.00;;;;;21.79;43.48;101310.09;5079628;28;45298;-65
2023/07/13 02:55:37;;;;;;;;;1.00;1.00;;;;;21.81;43.69;101299.91;5079639;28;45520;-66
2023/07/13 02:58:03;;;;;;;;;2.33;1.00;;;;;21.85;44.19;101301.19;5079587;28;45376;-67
2023/07/13 03:00:28;;;;;;;;;2.00;2.00;;;;;21.85;43.11;101307.44;5079415;28;47472;-65
2023/07/13 03:02:56;;;;;;;;;1.00;1.00;;;;;21.82;43.32;101304.28;5079689;28;45419;-67
2023/07/13 03:05:22;;;;;;;;;1.00;1.00;;;;;21.70;43.15;101281.56;5079453;28;45555;-65
2023/07/13 03:07:47;;;;;;;;;0.33;0.33;;;;;21.83;43.19;101308.69;5079922;28;45225;-66
2023/07/13 03:10:13;;;;;;;;;1.00;1.00;;;;;21.40;43.71;101243.16;5079206;28;45437;-66
2023/07/13 03:12:38;;;;;;;;;5.33;5.33;;;;;21.64;43.57;101287.81;5079414;28;45358;-65
2023/07/13 03:15:04;;;;;;;;;2.00;1.00;;;;;21.85;43.57;101322.84;5079626;28;45266;-66
2023/07/13 03:17:29;;;;;;;;;1.00;1.00;;;;;21.46;43.13;101259.44;5079694;28;45311;-66
2023/07/13 03:19:54;;;;;;;;;1.33;1.33;;;;;21.75;44.05;101325.91;5079301;28;45320;-67
2023/07/13 03:22:20;;;;;;;;;0.00;0.00;;;;;21.72;43.13;101320.09;5061106;28;45308;-66
2023/07/13 03:24:46;;;;;;;;;5.33;3.33;;;;;21.66;43.82;101318.19;5079391;28;45521;-66
2023/07/13 03:27:11;;;;;;;;;3.00;3.00;;;;;21.59;44.14;101318.16;5079630;28;45449;-66
2023/07/13 03:29:37;;;;;;;;;2.67;1.00;;;;;21.65;44.24;101327.34;5079226;28;46459;-67
2023/07/13 03:32:04;;;;;;;;;2.00;1.00;;;;;21.62;43.89;101319.63;5079130;28;45251;-67
2023/07/13 03:34:29;;;;;;;;;3.00;2.00;;;;;21.61;44.37;101331.47;5079153;28;45486;-68
2023/07/13 03:36:55;;;;;;;;;1.00;1.00;;;;;21.46;44.15;101318.13;5079376;28;45428;-67
2023/07/13 03:39:21;;;;;;;;;1.33;1.00;;;;;21.11;44.02;101260.50;5078843;28;46107;-66
2023/07/13 03:41:46;;;;;;;;;1.00;1.00;;;;;21.53;44.37;101346.03;5078930;28;45443;-67
2023/07/13 03:44:11;;;;;;;;;2.50;1.25;;;;;21.51;44.43;101334.56;5079180;28;45377;-66
2023/07/13 03:46:37;;;;;;;;;1.00;1.00;;;;;21.46;45.06;101335.19;5079204;28;45621;-68
2023/07/13 03:49:04;;;;;;;;;0.00;0.00;;;;;21.48;44.85;101333.09;5060095;28;48207;-66
2023/07/13 03:51:30;;;;;;;;;0.33;0.00;;;;;21.49;45.47;101339.34;5079091;28;45411;-65
2023/07/13 03:53:56;;;;;;;;;1.67;0.00;;;;;21.45;45.52;101327.28;5060563;28;45286;-66
2023/07/13 03:56:21;;;;;;;;;4.00;1.00;;;;;21.46;46.04;101337.88;5078466;28;45412;-66
2023/07/13 03:58:48;;;;;;;;;0.00;0.00;;;;;21.43;45.81;101340.16;5078698;28;45643;-65
2023/07/13 04:01:15;;;;;;;;;1.00;1.00;;;;;21.35;45.55;101324.91;5078282;28;45204;-65
2023/07/13 04:03:41;;;;;;;;;0.75;0.00;;;;;21.51;45.92;101343.53;5078347;28;45480;-66
2023/07/13 04:06:14;;;;;;;;;3.33;2.67;;;;;21.55;46.39;101350.19;5078676;28;45550;-65
2023/07/13 04:08:40;;;;;;;;;1.00;1.00;;;;;21.58;46.02;101345.41;5078277;28;46363;-66
2023/07/13 04:11:05;;;;;;;;;0.67;0.67;;;;;21.26;46.29;101293.69;5078267;28;45528;-67
2023/07/13 04:13:31;;;;;;;;;1.00;1.00;;;;;21.60;46.84;101356.88;5078180;28;47814;-67
2023/07/13 04:15:56;;;;;;;;;1.00;1.00;;;;;21.58;46.40;101351.66;5078654;28;45386;-66
2023/07/13 04:18:22;;;;;;;;;1.33;1.00;;;;;21.51;46.52;101339.97;5078285;28;46365;-65
2023/07/13 04:20:49;;;;;;;;;2.00;0.67;;;;;21.46;46.38;101346.00;5078260;28;45545;-65
2023/07/13 04:23:15;;;;;;;;;1.67;1.67;;;;;21.40;46.67;101333.25;5078385;28;45374;-65
2023/07/13 04:25:44;;;;;;;;;2.00;1.00;;;;;21.50;46.25;101352.69;5078268;28;45633;-66
2023/07/13 04:28:10;;;;;;;;;0.00;0.00;;;;;21.58;46.82;101359.78;5078265;28;46103;-66
2023/07/13 04:30:35;;;;;;;;;1.67;1.67;;;;;21.50;46.39;101355.38;5078222;28;45271;-66
2023/07/13 04:33:00;;;;;;;;;4.00;2.67;;;;;21.54;47.06;101364.75;5078512;28;45501;-67
2023/07/13 04:35:26;;;;;;;;;2.00;2.00;;;;;21.55;46.49;101371.84;5078406;28;45451;-65
2023/07/13 04:37:51;;;;;;;;;3.33;1.00;;;;;21.50;46.84;101358.09;5077915;28;45430;-66
2023/07/13 04:40:20;;;;;;;;;0.00;0.00;;;;;21.42;47.22;101350.13;5077785;28;45384;-66
2023/07/13 04:42:46;;;;;;;;;3.00;1.00;;;;;21.48;47.25;101364.75;5077737;28;45457;-67
2023/07/13 04:45:13;;;;;;;;;4.00;3.00;;;;;21.14;47.29;101314.16;5078368;28;45162;-66
2023/07/13 04:47:39;;;;;;;;;1.33;1.33;;;;;21.43;47.36;101362.63;5077728;28;48057;-65
2023/07/13 04:50:06;;;;;;;;;1.00;1.00;;;;;21.48;48.36;101375.56;5078007;28;45284;-65
2023/07/13 04:52:32;;;;;;;;;2.33;1.00;;;;;21.51;48.29;101384.09;5059584;28;45393;-65
2023/07/13 04:54:58;;;;;;;;;0.00;0.00;;;;;21.43;47.76;101367.22;5077852;28;45602;-66
2023/07/13 04:57:24;;;;;;;;;2.00;1.00;;;;;21.51;47.55;101376.00;5077662;28;46979;-67
2023/07/13 04:59:49;;;;;;;;;2.00;2.00;;;;;21.51;48.38;101375.16;5076483;28;45468;-66
2023/07/13 05:02:14;;;;;;;;;2.00;2.00;;;;;21.34;47.86;101342.19;5077710;28;45359;-67
2023/07/13 05:04:40;;;;;;;;;1.67;1.67;;;;;21.41;48.31;101344.91;5077939;28;45269;-67
2023/07/13 05:07:06;;;;;;;;;1.00;1.00;;;;;21.51;48.34;101357.06;5077228;28;45380;-67
2023/07/13 05:09:31;;;;;;;;;1.00;1.00;;;;;21.30;48.27;101319.28;5077560;28;45253;-65
2023/07/13 05:11:57;;;;;;;;;2.00;1.00;;;;;21.63;48.41;101367.31;5077528;28;45461;-66
2023/07/13 05:14:22;;;;;;;;;3.33;2.00;;;;;21.34;48.35;101307.03;5077940;28;45489;-66
2023/07/13 05:16:47;;;;;;;;;2.00;2.00;;;;;21.38;48.15;101305.56;5077311;28;45659;-70
2023/07/13 05:19:12;;;;;;;;;6.00;4.67;;;;;21.84;47.79;101370.72;5076498;28;62997;-66
2023/07/13 05:21:38;;;;;;;;;3.00;3.00;;;;;21.88;47.39;101365.75;5077527;28;45444;-69
2023/07/13 05:24:03;;;;;;;;;4.00;3.00;;;;;21.92;47.65;101372.41;5077518;28;45423;-66
2023/07/13 05:26:29;;;;;;;;;0.67;0.67;;;;;21.49;47.56;101296.91;5076958;28;45540;-65
2023/07/13 05:28:54;;;;;;;;;1.00;1.00;;;;;22.02;47.45;101389.09;5077097;28;45245;-68
2023/07/13 05:31:20;;;;;;;;;2.00;2.00;;;;;21.82;48.00;101350.28;5076350;27;45709;-67
2023/07/13 05:33:45;;;;;;;;;4.00;3.33;;;;;22.07;48.24;101388.53;5072997;28;45391;-68
2023/07/13 05:36:10;;;;;;;;;1.67;1.67;;;;;22.04;47.23;101384.38;5076708;27;45754;-65
2023/07/13 05:38:36;;;;;;;;;2.00;1.00;;;;;22.07;48.03;101396.66;5058509;28;45717;-69
2023/07/13 05:41:01;;;;;;;;;1.33;1.00;;;;;22.06;47.51;101393.13;5074718;28;45381;-68
2023/07/13 05:43:26;;;;;;;;;5.00;2.00;;;;;22.15;48.11;101399.16;5075470;28;45443;-68
2023/07/13 05:45:56;;;;;;;;;2.00;2.00;;;;;22.08;47.00;101398.31;5075120;27;47807;-70
2023/07/13 05:48:21;;;;;;;;;3.67;3.67;;;;;22.09;46.93;101400.84;5075516;28;45298;-77
2023/07/13 05:50:47;;;;;;;;;1.33;0.00;;;;;22.09;46.74;101408.94;5077230;28;45329;-80
2023/07/13 05:53:12;;;;;;;;;2.33;2.33;;;;;21.94;47.36;101370.34;5077407;28;45401;-67
2023/07/13 05:55:50;;;;;;;;;2.00;1.00;;;;;22.21;46.83;101403.75;5075577;28;54699;-67
2023/07/13 05:58:16;;;;;;;;;3.67;2.33;;;;;22.20;46.49;101391.25;5075579;28;45289;-66
2023/07/13 06:00:41;;;;;;;;;0.00;0.00;;;;;22.31;45.83;101398.81;5076020;27;45420;-68
2023/07/13 06:03:07;;;;;;;;;1.67;1.33;;;;;22.32;45.74;101388.78;5074184;27;45500;-68
2023/07/13 06:05:34;;;;;;;;;0.00;0.00;;;;;22.43;46.43;101399.88;5076479;28;45616;-67
2023/07/13 06:08:00;;;;;;;;;1.00;1.00;;;;;22.47;46.85;101413.84;5076574;27;45356;-67
2023/07/13 06:10:25;;;;;;;;;3.33;3.00;;;;;22.50;45.52;101413.44;5076212;28;45394;-67
2023/07/13 06:12:50;;;;;;;;;1.00;1.00;;;;;22.53;45.23;101413.00;5080240;27;45391;-67
2023/07/13 06:15:16;;;;;;;;;2.67;2.00;;;;;22.57;45.69;101408.84;5079810;28;45740;-67
2023/07/13 06:17:41;;;;;;;;;2.00;2.00;;;;;22.64;45.53;101417.84;5079939;28;45450;-65
2023/07/13 06:20:07;;;;;;;;;5.33;3.00;;;;;22.51;45.60;101392.59;5080035;28;45837;-67
2023/07/13 06:22:32;;;;;;;;;4.00;2.00;;;;;22.73;45.82;101423.88;5061947;28;45268;-68
2023/07/13 06:24:58;;;;;;;;;2.00;2.00;;;;;22.95;45.67;101419.09;5079542;28;46346;-67
2023/07/13 06:27:23;;;;;;;;;1.33;1.33;;;;;23.23;46.04;101416.19;5079941;28;45158;-67
2023/07/13 06:29:49;;;;;;;;;3.00;2.00;;;;;23.08;45.01;101373.00;5079838;28;45454;-66
2023/07/13 06:32:14;;;;;;;;;1.00;1.00;;;;;23.63;44.54;101431.38;5079336;28;58998;-67
2023/07/13 06:34:39;;;;;;;;;2.33;2.00;;;;;23.75;43.75;101434.25;5079739;28;45788;-68
2023/07/13 06:37:05;;;;;;;;;2.33;2.33;;;;;23.73;44.02;101406.47;5079570;28;55092;-67
2023/07/13 06:39:30;;;;;;;;;1.00;1.00;;;;;23.85;43.13;101423.78;5079679;27;45251;-68
2023/07/13 06:41:56;;;;;;;;;3.00;2.00;;;;;23.86;44.60;101432.75;5061535;27;45580;-67
2023/07/13 06:44:21;;;;;;;;;5.33;4.33;;;;;23.85;43.24;101440.06;5079593;27;46595;-68
2023/07/13 06:46:46;;;;;;;;;9.00;9.00;;;;;23.85;44.07;101436.50;5079634;28;45310;-68
2023/07/13 06:49:12;;;;;;;;;5.67;5.67;;;;;23.85;44.18;101425.66;5061325;28;45301;-66
2023/07/13 06:51:37;;;;;;;;;2.00;2.00;;;;;23.84;43.03;101429.41;5061503;28;45434;-67
2023/07/13 06:54:03;;;;;;;;;3.67;3.00;;;;;23.79;43.75;101421.88;5079205;27;46341;-66
2023/07/13 06:56:28;;;;;;;;;5.67;4.00;;;;;23.81;43.57;101419.78;5078995;27;45343;-68
2023/07/13 06:58:54;;;;;;;;;4.33;4.33;;;;;23.95;43.61;101437.72;5061504;27;45392;-68
2023/07/13 07:01:19;;;;;;;;;3.33;2.33;;;;;24.08;43.92;101444.16;5079602;28;49770;-69
2023/07/13 07:03:44;;;;;;;;;3.00;3.00;;;;;24.16;42.99;101447.44;5079251;27;46409;-67
2023/07/13 07:06:23;;;;;;;;;43.00;37.00;;;;;24.25;43.06;101435.28;5079353;28;45533;-68
2023/07/13 07:08:48;;;;;;;;;6.00;6.00;;;;;24.45;43.41;101456.94;5079673;28;45451;-66
2023/07/13 07:11:18;;;;;;;;;3.33;3.33;;;;;24.46;42.44;101436.88;5079392;28;45263;-68
2023/07/13 07:13:44;;;;;;;;;2.33;2.33;;;;;24.56;43.21;101429.03;5079274;28;46700;-67
2023/07/13 07:16:09;;;;;;;;;3.67;3.00;;;;;24.77;42.78;101446.88;5079049;28;45505;-68
2023/07/13 07:18:35;;;;;;;;;1.67;1.67;;;;;24.80;42.77;101442.88;5079203;28;45450;-68
2023/07/13 07:21:01;;;;;;;;;1.67;1.67;;;;;24.94;42.93;101449.91;5079575;28;45456;-68
2023/07/13 07:23:26;;;;;;;;;4.00;3.00;;;;;25.04;42.16;101452.16;5059752;28;47571;-67
2023/07/13 07:25:52;;;;;;;;;4.00;2.00;;;;;24.78;42.05;101390.59;5078617;27;45266;-67
2023/07/13 07:28:18;;;;;;;;;7.00;4.50;;;;;25.25;42.63;101448.22;5078893;27;45197;-66
2023/07/13 07:30:47;;;;;;;;;4.00;2.67;;;;;25.21;42.27;101430.63;5060925;28;45261;-68
2023/07/13 07:33:13;;;;;;;;;4.00;4.00;;;;;25.45;41.50;101459.72;5078837;28;45368;-67
2023/07/13 07:35:38;;;;;;;;;7.00;6.00;;;;;25.37;41.73;101430.91;5078985;28;45562;-67
2023/07/13 07:38:04;;;;;;;;;3.00;3.00;;;;;25.51;41.07;101434.31;5078826;27;45947;-68
2023/07/13 07:40:31;;;;;;;;;1.67;1.67;;;;;25.70;41.27;101455.09;5078512;27;45668;-66
2023/07/13 07:42:56;;;;;;;;;4.50;3.00;;;;;25.83;40.83;101458.69;5078482;27;45596;-67
2023/07/13 07:45:21;;;;;;;;;2.00;2.00;;;;;25.89;41.25;101449.63;5078583;28;45422;-66
2023/07/13 07:47:47;;;;;;;;;3.00;3.00;;;;;26.00;40.61;101455.13;5077368;28;45737;-68
2023/07/13 07:50:13;;;;;;;;;2.00;2.00;;;;;25.92;40.74;101432.84;5060734;28;45570;-66
2023/07/13 07:52:38;;;;;;;;;3.67;3.67;;;;;26.09;40.66;101452.94;5078245;27;45485;-68
2023/07/13 07:55:06;;;;;;;;;4.00;4.00;;;;;26.22;40.51;101462.81;5078226;28;45754;-67
2023/07/13 07:57:31;;;;;;;;;5.00;4.00;;;;;26.24;40.42;101469.75;5078201;27;45438;-67
2023/07/13 07:59:57;;;;;;;;;2.67;2.00;;;;;26.22;40.77;101463.66;5078463;27;45312;-69
2023/07/13 08:02:22;;;;;;;;;5.00;4.33;;;;;26.21;41.29;101459.28;5078412;28;46434;-67
2023/07/13 08:04:47;;;;;;;;;5.00;2.67;;;;;26.18;40.86;101461.63;5078266;27;45418;-68
2023/07/13 08:07:13;;;;;;;;;5.33;5.33;;;;;26.03;40.79;101456.59;5060343;28;45495;-69
2023/07/13 08:09:38;;;;;;;;;5.67;4.00;;;;;26.05;41.18;101468.09;5078148;27;45366;-67
2023/07/13 08:12:04;;;;;;;;;2.00;2.00;;;;;26.06;41.37;101475.22;5059572;28;48643;-67
2023/07/13 08:14:29;;;;;;;;;3.33;3.00;;;;;25.67;41.17;101428.31;5078185;28;45396;-66
2023/07/13 08:16:55;;;;;;;;;3.00;3.00;;;;;25.76;40.74;101451.44;5078160;28;45324;-68
2023/07/13 08:19:20;;;;;;;;;3.67;3.00;;;;;25.84;41.19;101474.00;5078240;27;45497;-68
2023/07/13 08:21:48;;;;;;;;;2.00;2.00;;;;;25.51;40.99;101434.31;5077676;28;46262;-67
2023/07/13 08:24:13;;;;;;;;;0.33;0.33;;;;;25.70;41.17;101471.44;5077904;27;45363;-68
2023/07/13 08:26:39;;;;;;;;;4.00;3.00;;;;;25.65;41.31;101470.41;5077749;27;45245;-68
2023/07/13 08:29:04;;;;;;;;;3.00;2.00;;;;;24.96;40.82;101374.34;5078184;27;45220;-68
2023/07/13 08:31:29;;;;;;;;;3.67;3.67;;;;;25.44;41.61;101452.63;5077878;28;46432;-67
2023/07/13 08:33:55;;;;;;;;;3.00;2.00;;;;;25.53;41.65;101453.97;5078102;28;45473;-68
2023/07/13 08:36:20;;;;;;;;;2.33;2.00;;;;;25.59;41.06;101474.84;5077890;28;45355;-67
2023/07/13 08:38:45;;;;;;;;;2.33;2.33;;;;;25.61;42.31;101475.47;5077923;28;45364;-66
2023/07/13 08:41:17;;;;;;;;;4.00;4.00;;;;;25.40;41.61;101427.72;5077332;27;46549;-67
2023/07/13 08:43:48;;;;;;;;;5.00;3.67;;;;;25.64;40.98;101466.03;5059583;28;45475;-67
2023/07/13 08:46:18;;;;;;;;;4.00;4.00;;;;;25.71;41.02;101477.72;5060252;28;45878;-68
2023/07/13 08:48:52;;;;;;;;;3.00;3.00;;;;;25.64;40.41;101482.38;5077847;28;45325;-67
2023/07/13 08:51:27;;;;;;;;;4.00;4.00;;;;;25.62;40.61;101482.56;5077165;28;45746;-69
2023/07/13 08:53:57;;;;;;;;;3.00;3.00;;;;;25.53;40.39;101462.16;5077828;28;45225;-68
2023/07/13 08:56:27;;;;;;;;;3.00;3.00;;;;;25.69;40.07;101469.75;5077061;27;45494;-68
2023/07/13 08:58:56;;;;;;;;;5.33;5.33;;;;;25.80;39.82;101480.94;5077573;28;45275;-67
2023/07/13 09:01:22;;;;;;;;;4.00;3.00;;;;;25.83;39.18;101475.03;5077358;27;45558;-67
2023/07/13 09:04:09;;;;;;;;;3.00;3.00;;;;;25.91;38.82;101474.75;5077252;27;45376;-67
2023/07/13 09:06:46;;;;;;;;;4.25;2.00;;;;;26.03;38.41;101464.78;5058373;28;45363;-67
2023/07/13 09:09:41;;;;;;;;;4.33;4.33;;;;;26.18;38.69;101478.81;5077330;27;45240;-68
2023/07/13 09:12:33;;;;;;;;;1.00;1.00;;;;;26.25;38.32;101476.84;5077067;28;47113;-68
2023/07/13 09:15:03;;;;;;;;;3.00;2.00;;;;;26.25;38.23;101479.56;5076802;27;45332;-68
2023/07/13 09:17:34;;;;;;;;;3.33;1.67;;;;;26.22;37.93;101471.84;5077192;27;45257;-68
2023/07/13 09:20:15;;;;;;;;;3.00;2.00;;;;;25.84;37.41;101416.81;5077236;28;45474;-67
2023/07/13 09:22:42;;;;;;;;;4.00;4.00;;;;;26.21;36.96;101472.91;5076976;28;45608;-67
2023/07/13 09:25:16;;;;;;;;;4.00;4.00;;;;;26.21;36.57;101462.00;5076495;28;45540;-67
2023/07/13 09:27:45;;;;;;;;;3.00;1.00;;;;;26.23;36.29;101465.34;5076904;28;45560;-67
2023/07/13 09:30:13;;;;;;;;;2.00;2.00;;;;;26.27;36.67;101477.44;5076887;28;45586;-70
2023/07/13 09:32:45;;;;;;;;;1.00;1.00;;;;;26.28;36.79;101459.19;5076403;27;45399;-68
2023/07/13 09:35:20;;;;;;;;;4.00;4.00;;;;;26.03;36.20;101410.28;5058946;28;45348;-67
2023/07/13 09:37:46;;;;;;;;;2.00;2.00;;;;;26.39;36.29;101480.25;5076858;27;45394;-68
2023/07/13 09:40:25;;;;;;;;;1.67;1.67;;;;;26.36;36.63;101476.09;5058687;28;45611;-67
2023/07/13 09:42:53;;;;;;;;;2.00;1.00;;;;;26.30;37.10;101470.69;5076713;28;46398;-68
2023/07/13 09:45:28;;;;;;;;;2.00;1.00;;;;;26.24;36.85;101474.34;5076595;27;45552;-69
2023/07/13 09:48:19;;;;;;;;;1.33;1.33;;;;;26.15;36.67;101481.16;5062299;28;45375;-69
2023/07/13 09:50:45;;;;;;;;;3.00;1.00;;;;;25.95;35.98;101471.34;5079863;27;45168;-68
2023/07/13 09:53:15;;;;;;;;;3.00;1.00;;;;;25.88;36.46;101475.22;5061877;28;46695;-66
2023/07/13 09:55:44;;;;;;;;;2.00;2.00;;;;;25.79;36.81;101474.66;5079955;28;45313;-67
2023/07/13 09:58:22;;;;;;;;;4.00;3.00;;;;;25.70;37.22;101486.94;5080043;28;45477;-66
2023/07/13 10:01:00;;;;;;;;;3.00;3.00;;;;;25.58;37.16;101483.25;5080146;27;45373;-68
2023/07/13 10:03:32;;;;;;;;;4.00;3.00;;;;;25.54;38.27;101476.59;5079883;27;46118;-66
2023/07/13 10:06:12;;;;;;;;;4.33;4.33;;;;;25.57;38.32;101493.31;5079677;28;45369;-66
2023/07/13 10:08:37;;;;;;;;;2.00;2.00;;;;;25.55;37.66;101492.72;5061571;27;45479;-67
2023/07/13 10:11:10;;;;;;;;;3.00;3.00;;;;;25.49;39.53;101499.06;5061262;28;45270;-70
2023/07/13 10:13:40;;;;;;;;;3.67;2.67;;;;;25.51;38.43;101502.38;5079728;27;45680;-69
2023/07/13 10:16:07;;;;;;;;;3.00;3.00;;;;;25.53;38.39;101503.00;5079864;27;45237;-69
2023/07/13 10:18:45;;;;;;;;;5.00;3.00;;;;;25.55;38.21;101498.16;5079923;28;45576;-70
2023/07/13 10:21:18;;;;;;;;;2.00;2.00;;;;;25.50;37.56;101489.84;5080221;28;45297;-67
2023/07/13 10:23:47;;;;;;;;;0.67;0.67;;;;;25.50;37.56;101495.28;5079618;28;46664;-69
2023/07/13 10:26:20;;;;;;;;;0.67;0.67;;;;;25.49;38.34;101493.63;5079377;27;45231;-67
2023/07/13 10:28:52;;;;;;;;;2.33;1.33;;;;;25.53;38.89;101507.59;5061586;28;45527;-68
2023/07/13 10:31:19;;;;;;;;;3.00;2.00;;;;;24.96;38.36;101427.91;5079459;27;45565;-68
2023/07/13 10:33:45;;;;;;;;;2.67;2.67;;;;;25.46;38.12;101508.50;5079465;28;46451;-68
2023/07/13 10:36:16;;;;;;;;;2.00;2.00;;;;;25.46;38.10;101518.56;5079615;27;45551;-68
2023/07/13 10:38:42;;;;;;;;;3.50;2.00;;;;;25.45;38.02;101509.56;5061450;28;45503;-68
2023/07/13 10:41:15;;;;;;;;;3.00;2.00;;;;;25.52;38.46;101517.66;5079330;28;45502;-68
2023/07/13 10:43:49;;;;;;;;;1.00;1.00;;;;;24.81;39.04;101411.91;5079117;27;45466;-68
2023/07/13 10:46:17;;;;;;;;;2.00;2.00;;;;;25.42;38.82;101522.78;5079359;28;45277;-67
2023/07/13 10:48:44;;;;;;;;;4.00;3.00;;;;;25.40;39.47;101520.28;5079443;28;45320;-67
2023/07/13 10:51:15;;;;;;;;;4.00;3.00;;;;;25.34;40.42;101504.00;5079369;28;45514;-67
2023/07/13 10:53:40;;;;;;;;;2.00;2.00;;;;;25.43;38.49;101519.84;5079146;28;46518;-69
2023/07/13 10:56:24;;;;;;;;;3.00;3.00;;;;;25.42;38.65;101522.78;5078837;28;45309;-67
2023/07/13 10:59:30;;;;;;;;;5.00;4.00;;;;;25.50;39.39;101532.56;5078085;28;45474;-67
2023/07/13 11:02:12;;;;;;;;;2.00;2.00;;;;;25.49;38.91;101509.94;5061648;28;45342;-67
2023/07/13 11:04:47;;;;;;;;;5.33;3.00;;;;;25.44;38.84;101516.06;5060449;28;47926;-67
2023/07/13 11:07:24;;;;;;;;;4.67;3.00;;;;;25.51;38.25;101532.34;5078942;28;45381;-68
2023/07/13 11:10:03;;;;;;;;;26.00;25.67;;;;;25.21;38.93;101477.72;5078777;28;45321;-67
2023/07/13 11:12:53;;;;;;;;;3.00;2.67;;;;;25.53;38.67;101518.50;5060923;28;45321;-67
2023/07/13 11:15:47;;;;;;;;;1.67;1.67;;;;;25.48;39.25;101522.72;5078679;28;45685;-68
2023/07/13 11:18:24;;;;;;;;;2.33;2.33;;;;;25.50;40.09;101516.22;5078705;27;45460;-67
2023/07/13 11:20:50;;;;;;;;;2.00;2.00;;;;;25.52;38.45;101516.84;5060577;28;45301;-66
2023/07/13 11:23:16;;;;;;;;;4.67;2.67;;;;;25.54;38.36;101521.00;5079178;28;45505;-68
2023/07/13 11:25:42;;;;;;;;;1.67;1.67;;;;;25.55;39.40;101511.78;5078564;28;46008;-67
2023/07/13 11:28:10;;;;;;;;;1.67;1.67;;;;;25.60;38.77;101506.47;5078598;28;45528;-67